Lleida, Spain

12:02 AM CET on February 07, 2016 (GMT +0100)
LLEIDAMET-1 | | Change Station
CLOSE
Current Station
Personal Weather Station
Location: Avda.Catalunya, Lleida
Elevation: 500 ft
Nearby Weather Stations

Elev 500 ft 41.61 °N, 0.62 °E | Updated 2 minutes ago

Scattered Clouds
Scattered Clouds
49.1 °F
Feels Like 47 °F
N
6.0
Wind Variable Wind from ENE
Gusts 10.0 mph

Today
High -- | Low -- °F
--% Chance of Precip.
Yesterday
High -- | Low -- °F
Precip. -- in
Pressure 30.01 in
Visibility 5.0 miles
Clouds Few 1000 ft
Scattered Clouds 3500 ft
Windchill 47 °F
Dew Point 39 °F
Humidity 68%
Rainfall 0.00 in
Snow Depth Not available.
8:03 AM 6:20 PM
Waning Crescent, 4% visible
METAR LERS 062100Z 00000KT 8000 FEW010 SCT035 11/11 Q1016
Pressure 30.01 in
Visibility 5.0 miles
Clouds Few 1000 ft
Scattered Clouds 3500 ft
Windchill 47 °F
Dew Point 39 °F
Humidity 68%
Rainfall 0.00 in
Snow Depth Not available.
8:03 AM 6:20 PM
Waning Crescent, 4% visible
METAR LERS 062100Z 00000KT 8000 FEW010 SCT035 11/11 Q1016

10-Day Weather Forecast

Almanac

Astronomy

Feb. 07, 2016 Rise Set
Actual Time
Civil Twilight
Nautical Twilight
Astronomical Twilight
Moon
Length Of Visible Light
Length of Day
Tomorrow will be .
, % of the Moon is Illuminated

Today's Extremes

Country Highs Country Lows

Community

WunderPhotos

Upload Photos

1,891,090 photos uploaded!

WunderBlog® & News

Nearby

Air Quality

  Air Quality AQ Index Pollutant
Not available.

Snow Depth

Station Depth Elevation

Earthquake Activity

City Distance Mag. Time & Date
Minimum magnitude displayed is 2.5.

Coastal Water Temperatures

Place Temperature

Stations

Nearby Weather Stations

Station Location Temp. Windchill Dew Point Humidity Wind Precip. Elev Updated Type